Time;durP1;ratioP1;P1;durP2;ratioP2;P2;SDS_P1;SDS_P2;PMS_P1;PMS_P2;Temp;Humidity;BMP_temperature;BMP_pressure;BME280_temperature;BME280_humidity;BME280_pressure;Samples;Min_cycle;Max_cycle;Signal;HPM_P1;HPM_P2
2022/01/16 00:04:36;;;;;;;19.40;11.20;;;27.90;99.90;;;;;;5071456;28;20031;-71
2022/01/16 00:07:04;;;;;;;21.02;10.57;;;28.00;99.90;;;;;;5071232;28;20028;-72
2022/01/16 00:09:33;;;;;;;21.10;10.02;;;28.10;99.90;;;;;;5071104;28;20017;-69
2022/01/16 00:12:00;;;;;;;19.42;9.90;;;28.00;99.90;;;;;;5070687;28;20029;-70
2022/01/16 00:14:30;;;;;;;18.70;10.20;;;28.10;99.90;;;;;;5070973;28;20025;-69
2022/01/16 00:16:58;;;;;;;16.70;10.02;;;28.10;99.90;;;;;;5071059;28;20427;-71
2022/01/16 00:19:27;;;;;;;18.13;9.82;;;28.10;99.90;;;;;;5070802;28;20103;-71
2022/01/16 00:21:54;;;;;;;19.52;11.23;;;28.10;99.90;;;;;;5071112;28;20385;-72
2022/01/16 00:24:22;;;;;;;16.08;9.65;;;28.10;99.90;;;;;;5070826;28;20024;-71
2022/01/16 00:26:49;;;;;;;18.25;9.75;;;28.10;99.90;;;;;;5070877;28;20055;-70
2022/01/16 00:29:16;;;;;;;24.27;11.48;;;28.10;99.90;;;;;;5065297;28;20017;-70
2022/01/16 00:31:45;;;;;;;15.63;9.55;;;28.20;99.90;;;;;;5070553;28;20131;-71
2022/01/16 00:34:13;;;;;;;18.83;9.63;;;28.30;99.90;;;;;;5070885;28;20031;-72
2022/01/16 00:36:40;;;;;;;20.20;11.35;;;28.30;99.90;;;;;;5070867;28;20078;-70
2022/01/16 00:39:09;;;;;;;21.65;11.35;;;28.40;99.90;;;;;;5070909;28;20029;-72
2022/01/16 00:41:36;;;;;;;25.08;12.05;;;28.40;99.90;;;;;;5065819;28;20039;-69
2022/01/16 00:44:04;;;;;;;17.30;10.63;;;28.60;99.90;;;;;;5062463;28;20029;-69
2022/01/16 00:46:32;;;;;;;17.60;10.20;;;28.60;99.90;;;;;;5064745;28;20028;-67
2022/01/16 00:49:02;;;;;;;22.23;11.35;;;28.80;99.90;;;;;;5050485;28;20106;-68
2022/01/16 00:51:29;;;;;;;19.10;10.82;;;28.80;99.90;;;;;;5049699;28;20021;-69
2022/01/16 00:53:57;;;;;;;20.17;10.25;;;28.70;99.90;;;;;;5064493;28;20028;-70
2022/01/16 00:56:24;;;;;;;17.98;10.30;;;28.60;99.90;;;;;;5051254;28;20028;-67
2022/01/16 00:58:51;;;;;;;17.83;10.20;;;28.60;99.90;;;;;;5050845;28;20028;-67
2022/01/16 01:01:19;;;;;;;18.42;9.68;;;28.50;99.90;;;;;;5048433;28;20042;-68
2022/01/16 01:03:46;;;;;;;18.80;10.85;;;28.50;99.90;;;;;;5067069;28;20024;-68
2022/01/16 01:06:14;;;;;;;20.05;9.13;;;28.50;99.90;;;;;;5051215;28;20043;-68
2022/01/16 01:08:41;;;;;;;19.55;9.85;;;28.70;99.90;;;;;;5050560;28;20384;-69
2022/01/16 01:11:16;;;;;;;17.60;9.57;;;28.70;99.90;;;;;;5050214;28;20025;-67
2022/01/16 01:16:48;;;;;;;18.45;9.13;;;28.90;99.90;;;;;;5050127;28;20143;-68
2022/01/16 01:19:16;;;;;;;16.52;10.05;;;29.00;99.90;;;;;;5049855;28;20488;-67
2022/01/16 01:21:43;;;;;;;19.75;8.73;;;29.00;99.90;;;;;;5049535;28;20517;-67
2022/01/16 01:24:11;;;;;;;16.40;8.85;;;29.10;99.90;;;;;;5066260;28;20052;-67
2022/01/16 01:26:47;;;;;;;23.02;9.55;;;29.30;99.90;;;;;;5058869;28;20016;-68
2022/01/16 01:29:19;;;;;;;16.35;8.88;;;29.30;99.90;;;;;;5053599;28;20029;-70
2022/01/16 01:31:46;;;;;;;17.20;8.18;;;29.40;99.90;;;;;;5053177;28;20068;-69
2022/01/16 01:34:15;;;;;;;20.50;8.80;;;29.50;99.90;;;;;;5071955;28;20028;-67
2022/01/16 01:36:48;;;;;;;16.77;8.10;;;29.70;99.90;;;;;;5053609;28;20446;-67
2022/01/16 01:39:20;;;;;;;16.52;8.35;;;29.80;99.90;;;;;;5053900;28;20028;-66
2022/01/16 01:41:50;;;;;;;20.70;8.23;;;29.80;99.90;;;;;;5053552;28;20029;-68
2022/01/16 01:52:34;;;;;;;20.20;7.55;;;30.20;99.90;;;;;;5053708;28;20039;-67
2022/01/16 01:55:02;;;;;;;16.20;7.85;;;30.20;99.90;;;;;;5053079;28;20163;-67
2022/01/16 01:57:29;;;;;;;19.77;7.53;;;30.20;99.90;;;;;;5053116;28;20025;-68
2022/01/16 01:59:56;;;;;;;22.88;7.22;;;30.10;99.90;;;;;;5053190;28;20021;-68
2022/01/16 02:02:27;;;;;;;18.73;7.00;;;30.20;99.90;;;;;;5053434;28;20029;-70
2022/01/16 02:04:55;;;;;;;24.70;7.75;;;30.40;99.90;;;;;;5052481;28;20056;-67
2022/01/16 02:07:22;;;;;;;19.50;6.90;;;30.50;99.90;;;;;;5052574;28;20032;-67
2022/01/16 02:09:49;;;;;;;24.75;6.65;;;30.50;99.90;;;;;;5052560;28;20032;-68
2022/01/16 02:12:17;;;;;;;16.80;6.65;;;30.50;99.90;;;;;;5053039;28;20017;-70
2022/01/16 02:15:03;;;;;;;17.25;6.82;;;30.40;99.90;;;;;;5054249;28;20027;-67
2022/01/16 02:36:34;;;;;;;18.27;5.90;;;30.80;98.70;;;;;;5050152;28;20116;-69
2022/01/16 02:39:08;;;;;;;20.75;6.30;;;31.00;98.60;;;;;;5052535;28;20009;-67
2022/01/16 02:41:35;;;;;;;15.48;5.88;;;31.00;98.50;;;;;;5052391;28;20025;-69
2022/01/16 02:44:14;;;;;;;17.48;5.35;;;31.00;98.70;;;;;;5055350;28;20025;-67
2022/01/16 02:46:43;;;;;;;21.02;6.15;;;31.00;98.10;;;;;;5052421;28;20036;-69
2022/01/16 02:49:28;;;;;;;15.95;5.55;;;31.10;98.70;;;;;;5052537;28;20021;-69
2022/01/16 02:52:03;;;;;;;15.50;5.55;;;31.40;97.80;;;;;;5052120;28;20054;-67
2022/01/16 02:54:35;;;;;;;16.90;4.43;;;31.50;97.80;;;;;;5055391;28;20017;-68
2022/01/16 02:57:15;;;;;;;16.13;4.65;;;31.60;98.20;;;;;;5052116;28;20096;-67
2022/01/16 02:59:48;;;;;;;17.48;5.75;;;31.90;97.40;;;;;;5052233;28;20028;-69
2022/01/16 03:02:20;;;;;;;16.55;4.75;;;31.90;96.80;;;;;;5052201;28;20044;-67
2022/01/16 03:04:48;;;;;;;17.92;5.47;;;31.90;96.80;;;;;;5060734;28;20074;-67
2022/01/16 03:07:16;;;;;;;15.63;5.20;;;31.90;96.60;;;;;;5052113;28;20021;-69
2022/01/16 03:10:06;;;;;;;19.30;4.93;;;31.90;96.70;;;;;;5052404;28;20017;-69
2022/01/16 03:12:34;;;;;;;21.77;6.20;;;32.00;97.00;;;;;;5054802;28;20441;-68
2022/01/16 03:15:01;;;;;;;15.77;5.40;;;32.50;95.80;;;;;;5053738;28;20028;-67
2022/01/16 03:17:52;;;;;;;18.50;5.10;;;32.80;95.20;;;;;;5051802;28;20024;-67
2022/01/16 03:23:05;;;;;;;15.80;5.03;;;33.10;94.30;;;;;;5056588;28;20148;-69
2022/01/16 03:25:33;;;;;;;14.65;4.47;;;33.40;93.90;;;;;;5051712;28;20108;-67
2022/01/16 03:28:00;;;;;;;16.08;5.25;;;33.60;93.40;;;;;;5051677;28;20024;-66
2022/01/16 03:30:27;;;;;;;12.57;5.15;;;33.80;93.10;;;;;;5051583;28;20155;-67
2022/01/16 03:32:55;;;;;;;18.63;5.05;;;34.00;92.80;;;;;;5064560;28;20028;-69
2022/01/16 03:35:23;;;;;;;16.02;4.85;;;34.20;92.00;;;;;;5049960;28;20023;-70
2022/01/16 03:37:50;;;;;;;16.88;4.88;;;34.30;91.70;;;;;;5050185;28;20020;-67
2022/01/16 03:40:21;;;;;;;9.77;3.65;;;34.30;91.40;;;;;;5051070;28;20355;-68
2022/01/16 03:42:49;;;;;;;17.67;4.60;;;34.60;91.90;;;;;;5054116;28;20050;-68
2022/01/16 03:45:17;;;;;;;14.80;4.30;;;35.00;90.70;;;;;;5052142;28;20075;-67
2022/01/16 03:47:44;;;;;;;13.25;4.30;;;35.30;90.20;;;;;;5050691;28;20021;-68
2022/01/16 03:50:12;;;;;;;15.27;5.22;;;35.60;87.90;;;;;;5051241;28;20021;-71
2022/01/16 03:52:39;;;;;;;14.18;4.97;;;35.50;87.70;;;;;;5054561;28;20465;-68
2022/01/16 03:55:07;;;;;;;14.85;4.35;;;35.50;87.70;;;;;;5054550;28;20052;-68
2022/01/16 03:57:36;;;;;;;17.67;4.95;;;35.40;88.30;;;;;;5051392;28;20053;-70
2022/01/16 04:00:11;;;;;;;15.68;4.95;;;35.50;87.00;;;;;;5051241;28;20067;-67
2022/01/16 04:02:39;;;;;;;14.27;5.28;;;35.30;86.60;;;;;;5052803;28;20040;-68
2022/01/16 04:05:06;;;;;;;14.68;4.03;;;35.50;86.50;;;;;;5055028;28;20025;-70
2022/01/16 04:07:35;;;;;;;12.95;3.70;;;35.70;85.70;;;;;;5050666;28;20021;-68
2022/01/16 04:10:08;;;;;;;12.55;3.90;;;35.60;85.20;;;;;;5051084;28;20105;-69
2022/01/16 04:12:38;;;;;;;12.23;4.35;;;35.40;85.50;;;;;;5053539;28;20809;-68
2022/01/16 04:17:42;;;;;;;12.95;4.28;;;35.30;85.00;;;;;;5051173;28;20013;-69
2022/01/16 04:20:10;;;;;;;14.93;3.92;;;35.40;84.50;;;;;;5050653;28;20082;-71
2022/01/16 04:22:38;;;;;;;18.13;4.68;;;35.30;84.50;;;;;;5053445;28;20024;-70
2022/01/16 04:25:06;;;;;;;13.20;4.55;;;35.20;86.00;;;;;;5055714;28;20068;-67
2022/01/16 04:27:33;;;;;;;15.70;4.18;;;35.20;85.20;;;;;;5050443;28;20433;-71
2022/01/16 04:30:01;;;;;;;15.95;5.10;;;35.20;85.80;;;;;;5050202;28;20044;-70
2022/01/16 04:32:28;;;;;;;16.67;5.35;;;35.50;84.80;;;;;;5053119;28;20095;-67
2022/01/16 04:34:55;;;;;;;16.35;4.63;;;35.60;83.80;;;;;;5057625;28;20120;-70
2022/01/16 04:37:23;;;;;;;16.17;4.82;;;35.50;83.50;;;;;;5050754;28;20021;-70
2022/01/16 04:39:52;;;;;;;15.60;4.80;;;35.40;83.70;;;;;;5050743;28;20025;-71
2022/01/16 04:45:05;;;;;;;13.32;4.40;;;35.70;82.00;;;;;;5056860;28;20036;-70
2022/01/16 04:47:33;;;;;;;14.48;3.92;;;35.70;82.30;;;;;;5050372;28;20503;-67
2022/01/16 04:50:00;;;;;;;14.00;4.30;;;35.70;82.50;;;;;;5050927;28;20036;-71
2022/01/16 04:52:27;;;;;;;9.57;3.17;;;35.60;82.50;;;;;;5051127;28;20446;-68
2022/01/16 04:54:55;;;;;;;12.90;4.20;;;35.20;83.00;;;;;;5058791;28;20351;-67
2022/01/16 04:57:22;;;;;;;13.35;4.43;;;35.40;83.10;;;;;;5050179;28;20083;-68
2022/01/16 04:59:52;;;;;;;14.23;4.57;;;35.50;82.60;;;;;;5051839;28;20029;-68
2022/01/16 05:02:19;;;;;;;14.45;4.30;;;35.30;83.70;;;;;;5053354;28;20044;-69
2022/01/16 05:04:46;;;;;;;14.75;4.15;;;35.50;83.00;;;;;;5062928;28;20036;-68
2022/01/16 05:07:14;;;;;;;12.45;4.13;;;35.50;82.90;;;;;;5061070;28;20533;-71
2022/01/16 05:09:41;;;;;;;15.15;4.25;;;35.60;83.10;;;;;;5054385;28;20025;-69
2022/01/16 05:12:12;;;;;;;20.45;5.30;;;35.40;83.10;;;;;;5053890;28;20017;-70
2022/01/16 05:17:24;;;;;;;15.75;5.15;;;35.60;83.40;;;;;;5053378;28;19911;-68
2022/01/16 05:19:54;;;;;;;17.23;4.47;;;35.60;82.80;;;;;;5052242;28;20100;-68
2022/01/16 05:22:21;;;;;;;20.10;4.78;;;34.80;84.60;;;;;;5051494;28;20140;-70
2022/01/16 05:24:49;;;;;;;14.68;4.53;;;35.10;84.20;;;;;;5057419;28;20642;-69
2022/01/16 05:27:16;;;;;;;13.07;3.90;;;35.40;83.80;;;;;;5053544;28;20377;-67
2022/01/16 05:29:43;;;;;;;18.67;4.90;;;35.70;82.90;;;;;;5052180;28;20101;-68
2022/01/16 05:32:15;;;;;;;14.93;5.80;;;35.90;82.60;;;;;;5050726;28;20459;-71
2022/01/16 05:34:43;;;;;;;17.20;5.00;;;36.00;82.40;;;;;;5054676;28;20469;-70
2022/01/16 05:37:10;;;;;;;18.25;5.18;;;36.00;81.60;;;;;;5053451;28;20162;-67
2022/01/16 05:39:39;;;;;;;17.52;5.38;;;35.90;82.30;;;;;;5066991;28;20032;-68
2022/01/16 05:42:08;;;;;;;18.48;4.55;;;34.80;84.50;;;;;;5054064;28;20414;-67
2022/01/16 05:44:39;;;;;;;18.15;5.18;;;34.60;85.40;;;;;;5057402;28;20021;-68
2022/01/16 05:47:10;;;;;;;12.23;4.32;;;34.50;85.00;;;;;;5053431;28;20810;-68
2022/01/16 05:49:37;;;;;;;18.25;4.75;;;34.20;86.30;;;;;;5053380;28;20036;-69
2022/01/16 05:52:05;;;;;;;16.63;4.75;;;34.60;86.10;;;;;;5053015;28;20025;-68
2022/01/16 05:54:33;;;;;;;13.30;4.45;;;34.50;85.80;;;;;;5057366;28;20100;-68
2022/01/16 05:57:00;;;;;;;16.25;5.07;;;34.80;85.80;;;;;;5053573;28;20025;-69
2022/01/16 05:59:28;;;;;;;17.48;4.82;;;34.80;85.10;;;;;;5053405;28;20025;-69
2022/01/16 06:01:55;;;;;;;19.70;5.25;;;34.70;84.80;;;;;;5053199;28;20033;-68
2022/01/16 06:04:22;;;;;;;15.45;5.20;;;34.60;85.20;;;;;;5055747;28;20053;-66
2022/01/16 06:06:50;;;;;;;18.95;5.28;;;34.60;85.40;;;;;;5051647;28;20047;-66
2022/01/16 06:09:17;;;;;;;18.17;4.80;;;34.60;85.60;;;;;;5053456;28;20021;-66
2022/01/16 06:11:44;;;;;;;17.02;5.32;;;34.20;86.10;;;;;;5052588;28;20075;-69
2022/01/16 06:14:12;;;;;;;17.88;5.95;;;34.00;86.20;;;;;;5056293;28;20052;-68
2022/01/16 06:16:39;;;;;;;18.08;4.97;;;33.40;87.70;;;;;;5052910;28;20440;-70
2022/01/16 06:19:06;;;;;;;18.27;5.50;;;32.70;89.40;;;;;;5052885;28;20025;-70
2022/01/16 06:21:34;;;;;;;16.48;5.05;;;32.20;90.90;;;;;;5053162;28;20089;-67
2022/01/16 06:24:04;;;;;;;22.58;5.68;;;32.00;91.30;;;;;;5056706;28;20025;-71
2022/01/16 06:26:32;;;;;;;19.20;5.53;;;31.90;90.80;;;;;;5053105;28;20492;-65
2022/01/16 06:28:59;;;;;;;15.70;5.00;;;31.60;91.40;;;;;;5054208;28;20024;-70
2022/01/16 06:31:26;;;;;;;16.02;4.93;;;31.30;91.80;;;;;;5052216;28;20049;-66
2022/01/16 06:33:54;;;;;;;18.35;4.50;;;31.00;92.60;;;;;;5062521;28;20048;-68
2022/01/16 06:36:24;;;;;;;18.48;5.70;;;30.80;92.80;;;;;;5054622;28;20473;-66
2022/01/16 06:38:53;;;;;;;15.23;4.75;;;30.50;93.30;;;;;;5052850;28;20381;-71
2022/01/16 06:41:21;;;;;;;23.00;4.85;;;30.20;93.30;;;;;;5052618;28;20489;-68
2022/01/16 06:43:48;;;;;;;25.65;5.35;;;29.90;93.80;;;;;;5056365;28;20384;-68
2022/01/16 06:46:15;;;;;;;14.43;3.92;;;29.80;94.00;;;;;;5052719;28;20428;-69
2022/01/16 06:48:43;;;;;;;19.15;5.57;;;29.50;94.90;;;;;;5047756;28;20013;-68
2022/01/16 06:51:10;;;;;;;22.65;5.88;;;29.10;95.90;;;;;;5052461;28;20021;-65
2022/01/16 06:53:37;;;;;;;17.88;4.50;;;29.20;95.90;;;;;;5052714;28;20025;-67
2022/01/16 06:56:05;;;;;;;19.52;5.30;;;29.40;95.50;;;;;;5052597;28;20107;-66
2022/01/16 06:58:32;;;;;;;13.65;4.45;;;29.40;95.30;;;;;;5052144;28;20025;-67
2022/01/16 07:01:00;;;;;;;17.45;4.35;;;29.40;95.50;;;;;;5054519;28;20090;-69
2022/01/16 07:03:27;;;;;;;21.10;5.60;;;29.40;95.40;;;;;;5063839;28;20028;-69
2022/01/16 07:05:55;;;;;;;22.67;5.70;;;29.40;95.70;;;;;;5050508;28;20021;-67
2022/01/16 07:08:25;;;;;;;19.20;5.53;;;29.40;95.70;;;;;;5051976;28;20053;-69
2022/01/16 07:10:53;;;;;;;18.65;5.53;;;29.40;95.80;;;;;;5050154;28;20014;-66
2022/01/16 07:13:21;;;;;;;20.38;6.03;;;29.30;96.10;;;;;;5053220;28;20500;-68
2022/01/16 07:15:50;;;;;;;19.88;4.97;;;29.30;96.00;;;;;;5059653;28;20100;-68
2022/01/16 07:18:19;;;;;;;16.00;4.90;;;29.30;96.40;;;;;;5052123;28;20025;-65
2022/01/16 07:20:49;;;;;;;19.20;5.45;;;29.30;96.30;;;;;;5051393;28;20029;-68
2022/01/16 07:23:17;;;;;;;18.95;5.18;;;29.10;96.50;;;;;;5052702;28;20174;-68
2022/01/16 07:25:45;;;;;;;16.27;4.95;;;29.00;97.00;;;;;;5052162;28;20021;-69
2022/01/16 07:28:13;;;;;;;19.25;5.63;;;29.10;96.80;;;;;;5051723;28;20029;-65
2022/01/16 07:30:41;;;;;;;20.50;5.68;;;29.10;96.40;;;;;;5050043;28;20485;-66
2022/01/16 07:33:13;;;;;;;12.90;4.80;;;29.00;96.40;;;;;;5053883;28;20037;-67
2022/01/16 07:35:41;;;;;;;16.38;5.32;;;29.00;97.00;;;;;;5051614;28;20025;-66
2022/01/16 07:38:09;;;;;;;23.70;6.95;;;28.90;96.80;;;;;;5050697;28;20455;-68
2022/01/16 07:40:37;;;;;;;16.77;4.38;;;29.00;97.00;;;;;;5051457;28;20492;-69
2022/01/16 07:43:05;;;;;;;20.30;5.25;;;29.00;97.00;;;;;;5052971;28;20044;-66
2022/01/16 07:45:33;;;;;;;16.27;5.38;;;29.10;97.10;;;;;;5051055;28;20491;-68
2022/01/16 07:48:00;;;;;;;23.27;5.75;;;29.20;97.30;;;;;;5051384;28;20378;-66
2022/01/16 07:50:27;;;;;;;19.55;5.20;;;29.20;96.80;;;;;;5065745;28;20016;-66
2022/01/16 07:52:55;;;;;;;24.40;5.65;;;29.10;96.90;;;;;;5055809;28;20012;-67
2022/01/16 07:55:25;;;;;;;15.85;5.53;;;29.00;97.00;;;;;;5051297;28;20044;-68
2022/01/16 07:57:54;;;;;;;19.92;5.28;;;28.80;97.30;;;;;;5051589;28;20017;-66
2022/01/16 08:00:29;;;;;;;22.35;5.22;;;28.50;98.10;;;;;;5071147;28;20411;-68
2022/01/16 08:02:57;;;;;;;19.25;5.38;;;28.30;98.50;;;;;;5070104;28;20400;-70
2022/01/16 08:05:25;;;;;;;18.65;6.15;;;28.00;99.10;;;;;;5070572;28;20119;-69
2022/01/16 08:07:53;;;;;;;22.23;5.32;;;27.90;99.30;;;;;;5070493;28;20330;-68
2022/01/16 08:10:21;;;;;;;23.38;7.53;;;27.90;99.60;;;;;;5065601;28;20067;-67
2022/01/16 08:12:48;;;;;;;26.23;5.88;;;27.80;99.90;;;;;;5050370;28;20036;-69
2022/01/16 08:15:16;;;;;;;21.80;5.18;;;27.80;99.90;;;;;;5050237;28;20071;-68
2022/01/16 08:17:45;;;;;;;20.58;5.78;;;27.80;99.90;;;;;;5049071;28;20025;-67
2022/01/16 08:20:16;;;;;;;22.33;6.55;;;27.80;99.90;;;;;;5048386;28;20147;-69
2022/01/16 08:22:45;;;;;;;18.77;5.47;;;27.80;99.90;;;;;;5050445;28;20025;-69
2022/01/16 08:25:13;;;;;;;15.30;5.32;;;27.70;99.90;;;;;;5050719;28;20477;-69
2022/01/16 08:27:41;;;;;;;22.98;6.25;;;27.70;99.90;;;;;;5050254;28;20079;-70
2022/01/16 08:30:12;;;;;;;20.75;6.07;;;27.60;99.90;;;;;;5051674;28;20477;-67
2022/01/16 08:32:42;;;;;;;24.10;5.50;;;27.50;99.90;;;;;;5050172;28;20041;-69
2022/01/16 08:35:10;;;;;;;21.35;6.15;;;27.50;99.90;;;;;;5055662;28;20114;-72
2022/01/16 08:37:38;;;;;;;26.65;7.60;;;27.50;99.90;;;;;;5067506;28;20028;-69
2022/01/16 08:40:06;;;;;;;22.92;5.80;;;27.40;99.90;;;;;;5072885;28;20115;-69
2022/01/16 08:42:37;;;;;;;21.23;5.38;;;27.30;99.90;;;;;;5066161;28;20469;-68
2022/01/16 08:45:05;;;;;;;23.30;6.07;;;27.20;99.90;;;;;;5055245;28;20166;-68
2022/01/16 08:47:32;;;;;;;20.38;5.03;;;27.10;99.90;;;;;;5054662;28;20362;-68
2022/01/16 08:50:02;;;;;;;21.35;5.55;;;27.00;99.90;;;;;;5054907;28;20484;-69
2022/01/16 08:52:33;;;;;;;25.80;6.00;;;26.90;99.90;;;;;;5068893;28;20018;-67
2022/01/16 08:55:01;;;;;;;20.90;5.78;;;26.90;99.90;;;;;;5054809;28;20024;-68
2022/01/16 08:57:29;;;;;;;20.67;5.78;;;26.80;99.90;;;;;;5053660;28;20025;-69
2022/01/16 09:00:00;;;;;;;18.80;6.47;;;26.70;99.90;;;;;;5054934;28;20029;-70
2022/01/16 09:02:27;;;;;;;25.52;6.30;;;26.50;99.90;;;;;;5068905;28;20081;-70
2022/01/16 09:04:54;;;;;;;16.20;5.53;;;26.50;99.90;;;;;;5054587;28;20016;-70
2022/01/16 09:07:22;;;;;;;21.88;5.45;;;26.40;99.90;;;;;;5054668;28;20031;-70
2022/01/16 09:09:49;;;;;;;23.95;6.93;;;26.40;99.90;;;;;;5054316;28;20032;-69
2022/01/16 09:12:16;;;;;;;20.00;5.72;;;26.30;99.90;;;;;;5069315;28;20457;-70
2022/01/16 09:14:44;;;;;;;24.40;5.93;;;26.20;99.90;;;;;;5058728;28;20040;-70
2022/01/16 09:17:11;;;;;;;19.88;5.85;;;26.20;99.90;;;;;;5054615;28;20029;-69
2022/01/16 09:19:38;;;;;;;22.42;6.47;;;26.20;99.90;;;;;;5053276;28;20025;-70
2022/01/16 09:22:05;;;;;;;23.17;6.40;;;26.10;99.90;;;;;;5071136;28;20031;-70
2022/01/16 09:24:33;;;;;;;21.60;5.82;;;26.10;99.90;;;;;;5055353;28;20052;-69
2022/01/16 09:27:00;;;;;;;21.98;6.43;;;26.10;99.90;;;;;;5059252;28;20035;-69
2022/01/16 09:29:28;;;;;;;19.55;5.90;;;26.00;99.90;;;;;;5072821;28;20107;-69
2022/01/16 09:31:55;;;;;;;21.08;6.15;;;26.00;99.90;;;;;;5073855;28;20040;-69
2022/01/16 09:34:23;;;;;;;21.25;6.32;;;25.90;99.90;;;;;;5074004;28;20021;-70
2022/01/16 09:36:50;;;;;;;22.35;5.82;;;25.90;99.90;;;;;;5073171;28;20030;-71
2022/01/16 09:39:17;;;;;;;27.45;6.15;;;25.80;99.90;;;;;;5074829;28;20031;-70
2022/01/16 09:41:45;;;;;;;21.67;4.95;;;25.80;99.90;;;;;;5070324;28;20279;-70
2022/01/16 09:44:13;;;;;;;24.08;6.38;;;25.70;99.90;;;;;;5053874;28;20013;-70
2022/01/16 09:46:41;;;;;;;24.77;7.53;;;25.70;99.90;;;;;;5060245;28;20082;-70
2022/01/16 09:49:08;;;;;;;21.00;5.85;;;25.60;99.90;;;;;;5074129;28;20059;-69
2022/01/16 09:51:35;;;;;;;19.33;6.03;;;25.60;99.90;;;;;;5072510;28;20378;-69
2022/01/16 09:54:05;;;;;;;16.90;5.47;;;25.60;99.90;;;;;;5072343;28;20035;-69
2022/01/16 09:56:33;;;;;;;25.05;6.55;;;25.60;99.90;;;;;;5072264;28;20090;-68
2022/01/16 09:59:00;;;;;;;20.40;5.28;;;25.50;99.90;;;;;;5072570;28;20028;-68
2022/01/16 10:01:27;;;;;;;21.25;6.85;;;25.50;99.90;;;;;;5071793;28;20025;-68
2022/01/16 10:03:55;;;;;;;19.60;6.60;;;25.50;99.90;;;;;;5072119;28;20027;-68
2022/01/16 10:06:24;;;;;;;19.63;5.70;;;25.50;99.90;;;;;;5071771;28;20032;-69
2022/01/16 10:08:54;;;;;;;27.73;6.53;;;25.50;99.90;;;;;;5072804;28;20488;-69
2022/01/16 10:11:39;;;;;;;21.52;6.75;;;25.40;99.90;;;;;;5073501;28;20158;-69
2022/01/16 10:14:14;;;;;;;26.60;7.03;;;25.40;99.90;;;;;;5073633;28;20020;-68
2022/01/16 10:16:42;;;;;;;29.33;6.57;;;25.40;99.90;;;;;;5073887;28;20020;-69
2022/01/16 10:19:23;;;;;;;23.13;5.10;;;25.40;99.90;;;;;;5074195;28;20020;-69
2022/01/16 10:21:51;;;;;;;29.63;6.55;;;25.30;99.90;;;;;;5073775;28;20083;-67
2022/01/16 10:24:24;;;;;;;28.50;7.55;;;25.30;99.90;;;;;;5073773;28;20020;-69
2022/01/16 10:27:14;;;;;;;30.45;6.95;;;25.30;99.90;;;;;;5073420;28;20354;-69
2022/01/16 10:29:44;;;;;;;28.00;7.30;;;25.30;99.90;;;;;;5073200;28;20048;-69
2022/01/16 10:32:22;;;;;;;32.58;6.85;;;25.30;99.90;;;;;;5073198;28;20051;-69
2022/01/16 10:35:06;;;;;;;28.98;6.90;;;25.30;99.90;;;;;;5073527;28;20024;-68
2022/01/16 10:37:34;;;;;;;27.17;6.72;;;25.20;99.90;;;;;;5073291;28;20020;-68
2022/01/16 10:40:15;;;;;;;23.13;6.88;;;25.20;99.90;;;;;;5073235;28;20031;-70
2022/01/16 10:42:53;;;;;;;25.35;6.45;;;25.20;99.90;;;;;;5071841;28;20032;-69
2022/01/16 10:45:26;;;;;;;26.42;6.68;;;25.20;99.90;;;;;;5073194;28;20489;-69
2022/01/16 10:47:57;;;;;;;29.08;7.18;;;25.20;99.90;;;;;;5073081;28;20029;-69
2022/01/16 10:50:31;;;;;;;19.70;5.40;;;25.20;99.90;;;;;;5073108;28;20107;-68
2022/01/16 10:53:03;;;;;;;26.00;9.35;;;25.20;99.90;;;;;;5073037;28;20468;-70
2022/01/16 10:55:38;;;;;;;36.58;8.93;;;25.20;99.90;;;;;;5072758;28;20024;-69
2022/01/16 10:58:24;;;;;;;23.05;6.60;;;25.10;99.90;;;;;;5071177;28;20473;-69
2022/01/16 11:00:56;;;;;;;24.42;7.03;;;25.10;99.90;;;;;;5072702;28;20032;-69
2022/01/16 11:03:26;;;;;;;25.88;7.40;;;25.10;99.90;;;;;;5072998;28;20029;-68
2022/01/16 11:05:54;;;;;;;22.38;6.57;;;25.10;99.90;;;;;;5072431;28;20075;-68
2022/01/16 11:08:27;;;;;;;26.85;7.10;;;25.10;99.90;;;;;;5072157;28;20032;-69
2022/01/16 11:10:56;;;;;;;30.88;6.55;;;25.10;99.90;;;;;;5072164;28;20479;-67
2022/01/16 11:13:32;;;;;;;22.30;6.43;;;25.10;99.90;;;;;;5072224;28;20020;-68
2022/01/16 11:16:10;;;;;;;19.38;6.72;;;25.10;99.90;;;;;;5072021;28;20032;-69
2022/01/16 11:18:40;;;;;;;22.80;5.97;;;25.10;99.90;;;;;;5072122;28;20111;-70
2022/01/16 11:23:49;;;;;;;16.58;5.88;;;25.10;99.90;;;;;;5071773;28;20031;-69
2022/01/16 11:26:19;;;;;;;27.23;6.22;;;25.10;99.90;;;;;;5072082;28;20020;-68
2022/01/16 11:28:48;;;;;;;20.63;4.88;;;25.10;99.90;;;;;;5072106;28;20024;-71
2022/01/16 11:31:16;;;;;;;25.25;6.93;;;25.10;99.90;;;;;;5071955;28;20047;-71
2022/01/16 11:33:44;;;;;;;25.80;7.05;;;25.20;99.90;;;;;;5072038;28;20020;-71
2022/01/16 11:36:16;;;;;;;16.05;5.20;;;25.10;99.90;;;;;;5072022;28;20039;-71
2022/01/16 11:38:47;;;;;;;25.73;6.57;;;25.10;99.90;;;;;;5071903;28;20028;-71
2022/01/16 11:41:17;;;;;;;20.93;5.67;;;25.20;99.90;;;;;;5071916;28;20362;-70
2022/01/16 11:43:52;;;;;;;22.15;5.80;;;25.20;99.90;;;;;;5071914;28;20028;-69
2022/01/16 11:46:21;;;;;;;20.80;5.97;;;25.20;99.90;;;;;;5072168;28;20027;-70
2022/01/16 11:49:01;;;;;;;20.60;5.72;;;25.30;99.90;;;;;;5072291;28;20024;-69
2022/01/16 11:51:35;;;;;;;25.45;6.25;;;25.20;99.90;;;;;;5071846;28;20028;-69
2022/01/16 11:54:15;;;;;;;17.58;5.40;;;25.20;99.90;;;;;;5071651;28;20035;-69
2022/01/16 11:56:43;;;;;;;27.17;6.55;;;25.20;99.90;;;;;;5071903;28;20028;-69
2022/01/16 11:59:13;;;;;;;18.73;6.03;;;25.20;99.90;;;;;;5070884;28;20063;-69
2022/01/16 12:02:20;;;;;;;25.83;6.43;;;25.20;99.90;;;;;;5070018;28;20032;-70
2022/01/16 12:04:52;;;;;;;23.20;6.35;;;25.20;99.90;;;;;;5053493;28;20079;-71
2022/01/16 12:07:20;;;;;;;22.05;6.18;;;25.10;99.90;;;;;;5070638;28;20452;-69
2022/01/16 12:10:01;;;;;;;19.02;5.10;;;25.20;99.90;;;;;;5071274;28;20032;-69
2022/01/16 12:12:31;;;;;;;20.98;5.93;;;25.20;99.90;;;;;;5070505;28;20370;-69
2022/01/16 12:15:03;;;;;;;21.23;5.93;;;25.20;99.90;;;;;;5070119;28;20012;-67
2022/01/16 12:17:42;;;;;;;21.58;6.28;;;25.20;99.90;;;;;;5070583;28;20034;-69
2022/01/16 12:20:17;;;;;;;18.48;5.97;;;25.20;99.90;;;;;;5070551;28;20068;-69
2022/01/16 12:22:47;;;;;;;20.98;5.70;;;25.20;99.90;;;;;;5070280;28;20025;-71
2022/01/16 12:25:32;;;;;;;23.55;6.22;;;25.20;99.90;;;;;;5068082;28;20035;-69
2022/01/16 12:28:25;;;;;;;23.33;6.60;;;25.10;99.90;;;;;;5068785;28;20025;-70
2022/01/16 12:31:02;;;;;;;23.95;6.22;;;25.10;99.90;;;;;;5067439;28;20051;-69
2022/01/16 12:33:50;;;;;;;20.00;5.60;;;25.10;99.90;;;;;;5068976;28;20050;-69
2022/01/16 12:36:33;;;;;;;29.60;8.38;;;25.10;99.90;;;;;;5068552;28;20031;-70
2022/01/16 12:39:01;;;;;;;;;;;25.10;99.90;;;;;;5069690;28;20031;-70
2022/01/16 12:41:40;;;;;;;20.30;6.32;;;25.10;99.90;;;;;;5069890;28;20269;-69
2022/01/16 12:44:21;;;;;;;25.23;5.97;;;25.10;99.90;;;;;;5069940;28;20085;-68
2022/01/16 12:46:54;;;;;;;27.95;7.13;;;25.10;99.90;;;;;;5070239;28;20147;-69
2022/01/16 12:49:23;;;;;;;22.80;7.47;;;25.10;99.90;;;;;;5070633;28;20052;-69
2022/01/16 12:51:53;;;;;;;16.73;5.63;;;25.10;99.90;;;;;;5067379;28;20131;-68
2022/01/16 12:54:27;;;;;;;17.30;7.13;;;25.10;99.90;;;;;;5070210;28;20412;-70
2022/01/16 12:57:04;;;;;;;26.10;5.82;;;25.10;99.90;;;;;;5068068;28;20024;-68
2022/01/16 12:59:36;;;;;;;21.33;7.40;;;25.10;99.90;;;;;;5067498;28;20029;-69
2022/01/16 13:02:06;;;;;;;18.70;6.07;;;25.10;99.90;;;;;;5070119;28;20054;-70
2022/01/16 13:04:34;;;;;;;26.92;7.40;;;25.10;99.90;;;;;;5067723;28;20096;-68
2022/01/16 13:07:08;;;;;;;24.70;5.95;;;25.10;99.90;;;;;;5069935;28;20036;-69
2022/01/16 13:09:36;;;;;;;20.30;6.72;;;25.10;99.90;;;;;;5067997;28;20016;-69
2022/01/16 13:12:04;;;;;;;19.33;6.05;;;25.00;99.90;;;;;;5070013;28;20024;-68
2022/01/16 13:14:38;;;;;;;19.95;7.32;;;25.00;99.90;;;;;;5067561;28;20017;-69
2022/01/16 13:17:08;;;;;;;25.65;6.57;;;24.90;99.90;;;;;;5070007;28;20016;-69
2022/01/16 13:20:02;;;;;;;19.52;6.30;;;25.00;99.90;;;;;;5067800;28;20085;-67
2022/01/16 13:22:31;;;;;;;18.98;5.90;;;25.00;99.90;;;;;;5072449;28;20041;-70
2022/01/16 13:25:03;;;;;;;22.38;6.13;;;25.00;99.90;;;;;;5071934;28;20024;-69
2022/01/16 13:27:31;;;;;;;22.83;6.20;;;25.00;99.90;;;;;;5073286;28;20027;-69
2022/01/16 13:30:03;;;;;;;28.15;7.22;;;25.10;99.90;;;;;;5073347;28;20024;-69
2022/01/16 13:32:35;;;;;;;22.55;6.15;;;25.10;99.90;;;;;;5072109;28;20045;-69
2022/01/16 13:35:19;;;;;;;24.98;6.38;;;25.00;99.90;;;;;;5073457;28;20069;-71
2022/01/16 13:37:49;;;;;;;15.98;6.38;;;25.10;99.90;;;;;;5073077;28;20166;-69